createdAt,value
2022-12-15T00:01:26.409Z,55.53
2022-12-15T00:04:47.449Z,58.67
2022-12-15T00:08:08.501Z,52.33
2022-12-15T00:11:29.562Z,47.13
2022-12-15T00:14:50.042Z,45.07
2022-12-15T00:18:11.011Z,43.43
2022-12-15T00:21:31.324Z,44.97
2022-12-15T00:24:52.598Z,42.43
2022-12-15T00:28:15.936Z,43.03
2022-12-15T00:31:36.887Z,43.70
2022-12-15T00:34:57.644Z,43.77
2022-12-15T00:38:29.227Z,44.10
2022-12-15T00:41:31.148Z,44.17
2022-12-15T00:44:33.602Z,48.43
2022-12-15T00:47:36.420Z,53.90
2022-12-15T00:50:53.921Z,56.13
2022-12-15T00:54:17.996Z,60.47
2022-12-15T00:57:39.066Z,60.67
2022-12-15T01:00:59.482Z,54.40
2022-12-15T01:04:20.353Z,56.07
2022-12-15T01:07:41.085Z,56.37
2022-12-15T01:11:02.018Z,53.90
2022-12-15T01:14:22.529Z,54.00
2022-12-15T01:17:43.562Z,54.03
2022-12-15T01:20:45.461Z,52.67
2022-12-15T01:23:47.678Z,56.20
2022-12-15T01:26:49.563Z,57.70
2022-12-15T01:29:51.711Z,55.83
2022-12-15T01:32:53.776Z,65.77
2022-12-15T01:36:00.231Z,71.73
2022-12-15T01:39:02.372Z,71.00
2022-12-15T01:42:04.606Z,67.30
2022-12-15T01:45:26.711Z,65.27
2022-12-15T01:48:39.441Z,66.37
2022-12-15T01:51:47.223Z,69.03
2022-12-15T01:54:54.249Z,67.97
2022-12-15T01:58:02.559Z,62.13
2022-12-15T02:01:05.149Z,58.67
2022-12-15T02:04:07.248Z,64.37
2022-12-15T02:07:17.058Z,64.07
2022-12-15T02:10:19.207Z,63.20
2022-12-15T02:13:44.999Z,62.27
2022-12-15T02:17:17.751Z,63.10
2022-12-15T02:20:41.948Z,62.73
2022-12-15T02:23:46.896Z,61.03
2022-12-15T02:26:57.430Z,60.50
2022-12-15T02:30:14.206Z,61.47
2022-12-15T02:33:28.204Z,61.27
2022-12-15T02:36:37.353Z,62.87
2022-12-15T02:39:39.678Z,60.97
2022-12-15T02:42:50.214Z,59.70
2022-12-15T02:46:01.559Z,57.50
2022-12-15T02:49:17.819Z,56.97
2022-12-15T02:52:50.853Z,56.13
2022-12-15T02:56:00.759Z,56.87
2022-12-15T02:59:25.247Z,55.03
2022-12-15T03:02:30.538Z,54.20
2022-12-15T03:05:33.108Z,53.93
2022-12-15T03:08:34.987Z,53.43
2022-12-15T03:11:37.371Z,56.33
2022-12-15T03:14:39.292Z,55.07
2022-12-15T03:17:41.815Z,54.20
2022-12-15T03:20:43.753Z,55.83
2022-12-15T03:23:45.945Z,52.67
2022-12-15T03:26:50.153Z,53.80
2022-12-15T03:29:52.492Z,51.07
2022-12-15T03:32:54.389Z,51.53
2022-12-15T03:35:56.643Z,51.37
2022-12-15T03:38:58.571Z,51.77
2022-12-15T03:42:00.959Z,53.23
2022-12-15T03:45:03.269Z,57.70
2022-12-15T03:48:05.542Z,51.93
2022-12-15T03:51:07.435Z,51.50
2022-12-15T03:54:09.555Z,51.10
2022-12-15T03:57:11.465Z,49.60
2022-12-15T04:00:15.165Z,54.97
2022-12-15T04:03:17.184Z,52.87
2022-12-15T04:06:19.659Z,55.33
2022-12-15T04:09:21.799Z,56.57
2022-12-15T04:12:24.001Z,55.60
2022-12-15T04:15:26.928Z,54.53
2022-12-15T04:18:29.166Z,54.03
2022-12-15T04:21:31.126Z,55.90
2022-12-15T04:24:54.717Z,56.00
2022-12-15T04:28:15.750Z,53.77
2022-12-15T04:31:42.246Z,53.73
2022-12-15T04:35:02.590Z,55.30
2022-12-15T04:38:23.589Z,55.27
2022-12-15T04:41:44.658Z,57.47
2022-12-15T04:45:07.761Z,57.20
2022-12-15T04:48:28.947Z,57.63
2022-12-15T04:51:51.999Z,64.50
2022-12-15T04:55:12.358Z,68.57
2022-12-15T04:58:33.151Z,72.03
2022-12-15T05:01:53.758Z,68.30
2022-12-15T05:05:14.488Z,63.10
2022-12-15T05:08:35.044Z,63.37
2022-12-15T05:11:56.579Z,67.93
2022-12-15T05:15:16.985Z,67.90
2022-12-15T05:18:38.789Z,67.60
2022-12-15T05:21:59.087Z,65.37
2022-12-15T05:25:20.170Z,64.70
2022-12-15T05:28:40.624Z,60.03
2022-12-15T05:31:52.245Z,55.53
2022-12-15T05:34:54.297Z,54.60
2022-12-15T05:37:56.451Z,65.30
2022-12-15T05:40:59.760Z,60.17
2022-12-15T05:44:01.948Z,60.20
2022-12-15T05:47:04.831Z,60.90
2022-12-15T05:50:07.755Z,64.37
2022-12-15T05:53:09.701Z,68.50
2022-12-15T05:56:13.928Z,78.97
2022-12-15T05:59:16.058Z,89.23
2022-12-15T06:02:18.312Z,76.77
2022-12-15T06:05:20.290Z,77.27
2022-12-15T06:08:24.015Z,73.03
2022-12-15T06:11:27.114Z,69.13
2022-12-15T06:14:31.857Z,62.77
2022-12-15T06:17:33.905Z,60.50
2022-12-15T06:20:36.170Z,62.10
2022-12-15T06:23:39.406Z,69.30
2022-12-15T06:26:41.838Z,75.80
2022-12-15T06:29:45.182Z,76.80
2022-12-15T06:32:49.899Z,80.33
2022-12-15T06:35:52.229Z,70.33
2022-12-15T06:38:54.547Z,71.13
2022-12-15T06:41:56.448Z,70.23
2022-12-15T06:44:58.653Z,67.80
2022-12-15T06:48:01.668Z,83.80
2022-12-15T06:51:06.335Z,91.50
2022-12-15T06:54:11.195Z,80.10
2022-12-15T06:57:13.483Z,80.23
2022-12-15T07:00:16.039Z,79.00
2022-12-15T07:03:20.051Z,78.63
2022-12-15T07:06:22.208Z,77.57
2022-12-15T07:09:26.235Z,74.73
2022-12-15T07:12:28.165Z,81.27
2022-12-15T07:15:31.630Z,92.17
2022-12-15T07:18:33.622Z,90.63
2022-12-15T07:21:36.305Z,90.40
2022-12-15T07:24:38.222Z,90.83
2022-12-15T07:27:43.441Z,88.83
2022-12-15T07:30:45.724Z,81.57
2022-12-15T07:33:48.483Z,79.17
2022-12-15T07:36:52.792Z,78.73
2022-12-15T07:39:55.174Z,81.07
2022-12-15T07:42:57.351Z,81.43
2022-12-15T07:46:00.153Z,81.40
2022-12-15T07:49:02.166Z,84.23
2022-12-15T07:52:04.530Z,84.90
2022-12-15T07:55:07.017Z,96.23
2022-12-15T07:58:09.264Z,106.40
2022-12-15T08:01:12.767Z,116.70
2022-12-15T08:04:15.786Z,107.30
2022-12-15T08:07:17.715Z,93.97
2022-12-15T08:10:19.916Z,91.63
2022-12-15T08:13:52.966Z,85.77
2022-12-15T08:16:45.398Z,82.87
2022-12-15T08:19:47.342Z,81.67
2022-12-15T08:22:51.338Z,80.17
2022-12-15T08:25:53.298Z,77.27
2022-12-15T08:28:55.496Z,70.10
2022-12-15T08:31:57.510Z,70.37
2022-12-15T08:34:59.837Z,72.33
2022-12-15T08:38:05.582Z,71.80
2022-12-15T08:41:17.102Z,71.80
2022-12-15T08:44:18.993Z,71.00
2022-12-15T08:47:21.133Z,73.17
2022-12-15T08:50:23.004Z,72.77
2022-12-15T08:53:33.318Z,71.70
2022-12-15T08:56:35.864Z,72.40
2022-12-15T08:59:38.114Z,74.73
2022-12-15T09:02:40.107Z,76.63
2022-12-15T09:05:42.322Z,79.60
2022-12-15T09:08:44.628Z,85.07
2022-12-15T09:11:50.773Z,88.50
2022-12-15T09:14:53.111Z,92.13
2022-12-15T09:17:55.354Z,77.93
2022-12-15T09:21:02.786Z,79.07
2022-12-15T09:24:05.445Z,76.03
2022-12-15T09:27:07.559Z,78.23
2022-12-15T09:30:10.291Z,77.33
2022-12-15T09:33:12.626Z,79.43
2022-12-15T09:36:15.182Z,75.93
2022-12-15T09:39:17.243Z,78.53
2022-12-15T09:42:24.989Z,87.50
2022-12-15T09:45:36.644Z,82.60
2022-12-15T09:48:42.138Z,85.60
2022-12-15T09:51:51.686Z,87.27
2022-12-15T09:54:54.059Z,85.23
2022-12-15T09:58:06.039Z,89.47
2022-12-15T10:01:17.763Z,96.50
2022-12-15T10:04:56.119Z,106.37
2022-12-15T10:07:59.846Z,148.40
2022-12-15T10:11:25.400Z,108.23
2022-12-15T10:15:06.459Z,84.73
2022-12-15T10:18:35.384Z,83.93
2022-12-15T10:21:37.825Z,85.23
2022-12-15T10:28:25.318Z,85.53
2022-12-15T10:31:55.475Z,84.93
2022-12-15T10:34:57.720Z,84.80
2022-12-15T10:38:06.138Z,86.50
2022-12-15T10:41:14.247Z,86.40
2022-12-15T10:44:31.834Z,87.67
2022-12-15T10:47:34.458Z,84.67
2022-12-15T10:50:36.983Z,85.57
2022-12-15T10:53:44.116Z,85.77
2022-12-15T10:57:02.706Z,91.50
2022-12-15T11:00:14.829Z,102.90
2022-12-15T11:03:26.959Z,97.90
2022-12-15T11:06:34.189Z,94.87
2022-12-15T11:09:38.800Z,91.27
2022-12-15T11:12:58.395Z,86.77
2022-12-15T11:16:17.886Z,78.10
2022-12-15T11:20:02.753Z,79.17
2022-12-15T11:23:18.648Z,82.37
2022-12-15T11:26:53.060Z,92.83
2022-12-15T11:30:00.360Z,86.87
2022-12-15T11:33:03.186Z,85.07
2022-12-15T11:36:32.879Z,77.50
2022-12-15T11:39:56.539Z,71.90
2022-12-15T11:43:40.182Z,71.77
2022-12-15T11:47:17.846Z,88.53
2022-12-15T11:50:44.015Z,82.77
2022-12-15T11:53:54.348Z,70.67
2022-12-15T11:57:03.051Z,63.63
2022-12-15T12:00:15.323Z,55.40
2022-12-15T12:03:45.311Z,51.77
2022-12-15T12:06:55.340Z,51.07
2022-12-15T12:10:03.198Z,50.57
2022-12-15T12:13:28.114Z,43.57
2022-12-15T12:16:56.764Z,43.37
2022-12-15T12:20:07.865Z,48.13
2022-12-15T12:23:29.743Z,46.53
2022-12-15T12:26:35.005Z,46.00
2022-12-15T12:29:48.791Z,42.37
2022-12-15T12:33:11.462Z,46.63
2022-12-15T12:36:15.591Z,47.17
2022-12-15T12:39:23.465Z,48.03
2022-12-15T12:42:42.554Z,54.23
2022-12-15T12:46:06.769Z,48.57
2022-12-15T12:49:26.905Z,46.47
2022-12-15T12:52:35.521Z,44.50
2022-12-15T12:55:50.129Z,45.80
2022-12-15T12:58:57.817Z,39.83
2022-12-15T13:02:15.691Z,36.30
2022-12-15T13:05:31.364Z,35.97
2022-12-15T13:08:56.069Z,36.53
2022-12-15T13:12:14.843Z,40.43
2022-12-15T13:15:43.493Z,37.33
2022-12-15T13:19:08.506Z,34.87
2022-12-15T13:22:35.890Z,32.23
2022-12-15T13:25:51.951Z,34.97
2022-12-15T13:28:57.292Z,30.73
2022-12-15T13:31:59.735Z,31.40
2022-12-15T13:35:17.383Z,30.33
2022-12-15T13:38:19.731Z,32.47
2022-12-15T13:41:26.637Z,33.37
2022-12-15T13:44:35.116Z,32.53
2022-12-15T13:47:38.101Z,38.70
2022-12-15T13:51:15.009Z,45.63
2022-12-15T13:54:23.283Z,35.07
2022-12-15T13:58:01.447Z,34.90
2022-12-15T14:03:04.488Z,35.23
2022-12-15T14:05:22.797Z,31.73
2022-12-15T14:08:28.666Z,32.03
2022-12-15T14:11:52.883Z,33.23
2022-12-15T14:14:57.301Z,33.37
2022-12-15T14:18:01.311Z,33.57
2022-12-15T14:21:22.642Z,33.23
2022-12-15T14:24:50.772Z,32.87
2022-12-15T14:28:05.480Z,31.90
2022-12-15T14:31:24.458Z,31.07
2022-12-15T14:34:32.380Z,31.70
2022-12-15T14:37:35.004Z,31.40
2022-12-15T14:40:44.116Z,39.73
2022-12-15T14:44:32.193Z,60.37
2022-12-15T14:47:34.464Z,41.73
2022-12-15T14:50:36.864Z,38.73
2022-12-15T14:53:41.900Z,34.53
2022-12-15T14:56:43.948Z,34.50
2022-12-15T14:59:48.558Z,34.13
2022-12-15T15:02:50.536Z,35.77
2022-12-15T15:06:04.861Z,38.53
2022-12-15T15:09:15.930Z,37.73
2022-12-15T15:12:20.811Z,38.37
2022-12-15T15:15:26.526Z,38.93
2022-12-15T15:18:30.042Z,37.63
2022-12-15T15:21:38.974Z,39.47
2022-12-15T15:24:41.188Z,60.27
2022-12-15T15:27:44.289Z,62.20
2022-12-15T15:30:49.206Z,96.97
2022-12-15T15:33:52.846Z,85.13
2022-12-15T15:36:55.137Z,86.60
2022-12-15T15:39:57.007Z,75.30
2022-12-15T15:42:59.943Z,72.97
2022-12-15T15:46:16.646Z,64.10
2022-12-15T15:49:21.777Z,58.83
2022-12-15T15:52:24.014Z,59.33
2022-12-15T15:55:36.260Z,54.00
2022-12-15T15:58:42.868Z,48.07
2022-12-15T16:01:47.042Z,43.03
2022-12-15T16:04:49.092Z,36.20
2022-12-15T16:07:51.396Z,36.80
2022-12-15T16:10:58.972Z,37.83
2022-12-15T16:14:01.614Z,37.93
2022-12-15T16:17:03.568Z,39.33
2022-12-15T16:20:06.681Z,37.43
2022-12-15T16:23:18.842Z,37.80
2022-12-15T16:26:43.218Z,37.70
2022-12-15T16:29:45.214Z,37.10
2022-12-15T16:32:47.516Z,35.90
2022-12-15T16:35:51.025Z,36.43
2022-12-15T16:38:54.122Z,35.27
2022-12-15T16:41:56.488Z,34.70
2022-12-15T16:44:58.675Z,31.87
2022-12-15T16:48:00.613Z,32.57
2022-12-15T16:51:09.381Z,34.23
2022-12-15T16:54:24.707Z,32.93
2022-12-15T16:57:29.832Z,33.57
2022-12-15T17:00:34.698Z,32.40
2022-12-15T17:03:37.180Z,33.13
2022-12-15T17:06:39.518Z,32.07
2022-12-15T17:09:42.071Z,33.80
2022-12-15T17:12:44.775Z,33.27
2022-12-15T17:15:47.470Z,32.90
2022-12-15T17:18:50.501Z,34.43
2022-12-15T17:21:53.923Z,35.03
2022-12-15T17:24:55.862Z,35.63
2022-12-15T17:27:58.292Z,34.67
2022-12-15T17:31:00.548Z,34.73
2022-12-15T17:34:22.914Z,33.23
2022-12-15T17:37:28.033Z,33.97
2022-12-15T17:40:33.439Z,33.43
2022-12-15T17:43:36.183Z,34.57
2022-12-15T17:46:38.987Z,37.33
2022-12-15T17:49:41.514Z,39.27
2022-12-15T17:52:47.623Z,38.97
2022-12-15T17:55:53.208Z,40.57
2022-12-15T17:58:58.578Z,38.97
2022-12-15T18:02:00.605Z,39.20
2022-12-15T18:05:02.899Z,39.67
2022-12-15T18:08:20.481Z,39.73
2022-12-15T18:11:22.658Z,40.93
2022-12-15T18:14:24.579Z,41.97
2022-12-15T18:17:26.894Z,46.00
2022-12-15T18:20:31.058Z,55.03
2022-12-15T18:23:33.733Z,51.57
2022-12-15T18:26:38.034Z,49.27
2022-12-15T18:29:40.248Z,39.63
2022-12-15T18:32:43.010Z,38.87
2022-12-15T18:35:47.277Z,41.20
2022-12-15T18:38:49.313Z,47.47
2022-12-15T18:41:54.631Z,45.17
2022-12-15T18:45:00.322Z,42.80
2022-12-15T18:48:02.569Z,43.00
2022-12-15T18:51:20.319Z,42.87
2022-12-15T18:54:24.352Z,39.53
2022-12-15T18:57:26.654Z,39.13
2022-12-15T19:00:30.347Z,40.87
2022-12-15T19:03:33.799Z,40.40
2022-12-15T19:06:36.875Z,38.83
2022-12-15T19:09:39.291Z,46.93
2022-12-15T19:12:41.762Z,47.03
2022-12-15T19:15:43.738Z,62.97
2022-12-15T19:19:04.522Z,95.93
2022-12-15T19:22:29.927Z,110.23
2022-12-15T19:25:33.665Z,106.30
2022-12-15T19:28:35.959Z,89.80
2022-12-15T19:31:38.196Z,87.10
2022-12-15T19:34:40.297Z,82.57
2022-12-15T19:37:44.574Z,81.57
2022-12-15T19:40:47.642Z,75.53
2022-12-15T19:43:52.092Z,82.20
2022-12-15T19:46:54.179Z,89.53
2022-12-15T19:49:56.399Z,90.40
2022-12-15T19:53:01.659Z,99.23
2022-12-15T19:56:09.553Z,118.93
2022-12-15T19:59:26.752Z,63.57
2022-12-15T20:02:29.171Z,56.00
2022-12-15T20:05:31.392Z,75.07
2022-12-15T20:08:36.642Z,84.83
2022-12-15T20:11:38.856Z,85.57
2022-12-15T20:14:40.986Z,79.70
2022-12-15T20:17:42.915Z,88.93
2022-12-15T20:20:47.578Z,84.30
2022-12-15T20:24:02.410Z,81.10
2022-12-15T20:27:13.965Z,64.43
2022-12-15T20:30:27.777Z,64.80
2022-12-15T20:33:45.330Z,55.23
2022-12-15T20:36:47.520Z,57.77
2022-12-15T20:39:55.518Z,64.83
2022-12-15T20:42:59.574Z,70.17
2022-12-15T20:46:08.670Z,66.33
2022-12-15T20:49:17.525Z,68.70
2022-12-15T20:52:25.565Z,87.13
2022-12-15T20:55:27.970Z,91.13
2022-12-15T20:58:33.243Z,91.83
2022-12-15T21:01:36.809Z,98.93
2022-12-15T21:04:39.116Z,99.97
2022-12-15T21:07:42.398Z,96.87
2022-12-15T21:10:45.057Z,94.10
2022-12-15T21:13:53.020Z,95.83
2022-12-15T21:17:02.786Z,91.07
2022-12-15T21:20:05.355Z,88.33
2022-12-15T21:23:39.723Z,83.67
2022-12-15T21:26:45.064Z,85.03
2022-12-15T21:29:52.298Z,85.50
2022-12-15T21:32:57.371Z,96.47
2022-12-15T21:36:03.238Z,86.17
2022-12-15T21:39:06.827Z,90.53
2022-12-15T21:42:16.784Z,87.30
2022-12-15T21:45:27.826Z,85.53
2022-12-15T21:48:48.835Z,74.07
2022-12-15T21:52:04.052Z,68.60
2022-12-15T21:55:21.304Z,100.73
2022-12-15T21:58:27.446Z,63.33
2022-12-15T22:01:31.346Z,69.20
2022-12-15T22:04:35.069Z,64.63
2022-12-15T22:07:37.294Z,62.30
2022-12-15T22:10:39.415Z,63.90
2022-12-15T22:13:42.092Z,53.77
2022-12-15T22:16:45.144Z,52.93
2022-12-15T22:19:47.728Z,50.53
2022-12-15T22:22:50.306Z,48.60
2022-12-15T22:25:56.245Z,48.17
2022-12-15T22:29:01.387Z,45.17
2022-12-15T22:32:12.824Z,46.93
2022-12-15T22:35:15.557Z,46.27
2022-12-15T22:38:22.917Z,48.57
2022-12-15T22:41:24.868Z,51.23
2022-12-15T22:44:32.413Z,50.87
2022-12-15T22:47:37.373Z,51.93
2022-12-15T22:50:56.432Z,51.63
2022-12-15T22:54:00.949Z,49.77
2022-12-15T22:57:05.990Z,50.93
2022-12-15T23:00:11.028Z,49.90
2022-12-15T23:03:14.465Z,49.57
2022-12-15T23:06:16.338Z,49.20
2022-12-15T23:09:18.579Z,50.20
2022-12-15T23:12:20.502Z,50.73
2022-12-15T23:15:43.137Z,53.47
2022-12-15T23:18:45.638Z,59.70
2022-12-15T23:21:47.797Z,54.00
2022-12-15T23:24:49.666Z,57.93
2022-12-15T23:27:51.869Z,62.80
2022-12-15T23:30:55.397Z,59.03
2022-12-15T23:33:57.647Z,58.13
2022-12-15T23:36:59.671Z,58.97
2022-12-15T23:40:02.258Z,58.63
2022-12-15T23:43:04.460Z,60.23
2022-12-15T23:46:07.178Z,58.13
2022-12-15T23:49:10.342Z,61.00
2022-12-15T23:52:12.720Z,60.30
2022-12-15T23:55:14.749Z,61.63
2022-12-15T23:58:16.887Z,62.60
